Time;durP1;ratioP1;P1;durP2;ratioP2;P2;SDS_P1;SDS_P2;PMS_P1;PMS_P2;Temp;Humidity;BMP_temperature;BMP_pressure;BME280_temperature;BME280_humidity;BME280_pressure;Samples;Min_cycle;Max_cycle;Signal;HPM_P1;HPM_P2
2023/10/24 00:01:46;;;;;;;;;;;;;;;20.18;58.20;100604.44;5039752;28;6262;-73
2023/10/24 00:04:13;;;;;;;;;;;;;;;20.18;58.16;100601.56;5042144;28;2429;-73
2023/10/24 00:06:39;;;;;;;;;;;;;;;20.16;58.31;100593.63;5042024;28;2365;-74
2023/10/24 00:09:06;;;;;;;;;;;;;;;20.15;58.34;100597.88;5042370;28;2208;-74
2023/10/24 00:11:33;;;;;;;;;;;;;;;20.16;58.21;100587.88;5041059;28;2173;-73
2023/10/24 00:13:59;;;;;;;;;;;;;;;20.15;58.37;100577.00;5039449;28;2294;-74
2023/10/24 00:16:26;;;;;;;;;;;;;;;20.15;58.38;100577.75;5024423;28;2417;-74
2023/10/24 00:18:52;;;;;;;;;;;;;;;20.16;58.22;100570.63;5041915;28;2128;-73
2023/10/24 00:21:19;;;;;;;;;;;;;;;20.15;58.26;100577.00;5042221;28;2215;-74
2023/10/24 00:23:45;;;;;;;;;;;;;;;20.16;58.12;100566.97;5040327;28;2337;-74
2023/10/24 00:26:12;;;;;;;;;;;;;;;20.16;58.12;100566.97;5042061;28;2389;-74
2023/10/24 00:28:42;;;;;;;;;;;;;;;20.13;58.00;100554.66;5022696;28;2244;-74
2023/10/24 00:31:09;;;;;;;;;;;;;;;20.13;58.33;100548.16;5037585;28;6175;-74
2023/10/24 00:33:35;;;;;;;;;;;;;;;20.15;58.31;100545.38;5040420;28;2260;-73
2023/10/24 00:36:02;;;;;;;;;;;;;;;20.14;58.25;100541.03;5041534;28;2345;-73
2023/10/24 00:38:28;;;;;;;;;;;;;;;20.14;58.37;100538.16;5040865;28;2373;-74
2023/10/24 00:40:55;;;;;;;;;;;;;;;20.13;58.10;100537.41;5041108;28;2407;-74
2023/10/24 00:43:21;;;;;;;;;;;;;;;20.14;58.10;100529.53;5021358;28;2452;-74
2023/10/24 00:45:47;;;;;;;;;;;;;;;20.11;58.28;100528.69;5041101;28;2172;-73
2023/10/24 00:48:14;;;;;;;;;;;;;;;20.12;58.41;100512.22;5039029;28;2627;-74
2023/10/24 00:50:40;;;;;;;;;;;;;;;20.12;58.52;100512.22;5038689;28;2298;-73
2023/10/24 00:53:07;;;;;;;;;;;;;;;20.11;58.25;100504.97;5041416;28;2232;-73
2023/10/24 00:55:36;;;;;;;;;;;;;;;20.09;58.36;100509.25;5040984;28;2622;-74
2023/10/24 00:58:02;;;;;;;;;;;;;;;20.09;58.39;100491.28;5040029;28;2322;-74
2023/10/24 01:00:29;;;;;;;;;;;;;;;20.09;58.37;100491.28;5039785;28;6206;-74
2023/10/24 01:02:55;;;;;;;;;;;;;;;20.08;58.44;100493.38;5041905;28;2639;-74
2023/10/24 01:05:22;;;;;;;;;;;;;;;20.08;58.19;100484.75;5040732;28;2345;-73
2023/10/24 01:07:50;;;;;;;;;;;;;;;20.08;58.48;100479.00;5008050;28;2254;-74
2023/10/24 01:10:17;;;;;;;;;;;;;;;20.08;58.34;100493.38;5024518;28;2264;-74
2023/10/24 01:12:44;;;;;;;;;;;;;;;20.06;58.32;100487.53;5042655;28;2378;-74
2023/10/24 01:15:10;;;;;;;;;;;;;;;20.06;58.16;100481.81;5023602;28;2409;-74
2023/10/24 01:17:46;;;;;;;;;;;;;;;20.06;58.35;100493.28;5042269;28;2317;-74
2023/10/24 01:20:12;;;;;;;;;;;;;;;20.06;58.42;100489.69;5040037;28;2165;-74
2023/10/24 01:22:39;;;;;;;;;;;;;;;20.06;58.18;100481.81;5018378;28;2321;-73
2023/10/24 01:25:05;;;;;;;;;;;;;;;20.05;58.31;100488.97;5037777;28;2258;-74
2023/10/24 01:27:32;;;;;;;;;;;;;;;20.06;58.42;100478.94;5010218;28;2820;-74
2023/10/24 01:29:58;;;;;;;;;;;;;;;20.05;58.46;100470.97;5018803;28;2259;-74
2023/10/24 01:32:31;;;;;;;;;;;;;;;20.05;58.35;100471.72;5017995;28;6330;-74
2023/10/24 01:34:57;;;;;;;;;;;;;;;20.04;58.27;100473.13;5040656;28;2461;-74
2023/10/24 01:37:24;;;;;;;;;;;;;;;20.03;58.45;100470.88;5040785;28;2081;-74
2023/10/24 01:39:50;;;;;;;;;;;;;;;20.02;58.36;100464.41;5041576;28;2195;-74
2023/10/24 01:42:17;;;;;;;;;;;;;;;20.05;58.35;100473.84;5043383;28;2339;-74
2023/10/24 01:44:43;;;;;;;;;;;;;;;20.03;58.30;100473.75;5043915;28;2419;-74
2023/10/24 01:47:09;;;;;;;;;;;;;;;20.02;58.37;100470.16;5011467;28;2269;-74
2023/10/24 01:49:36;;;;;;;;;;;;;;;20.02;58.40;100469.41;5043647;28;2196;-74
2023/10/24 01:52:02;;;;;;;;;;;;;;;20.03;58.47;100473.75;5027603;28;1606;-73
2023/10/24 01:54:29;;;;;;;;;;;;;;;20.03;58.40;100471.63;5043200;28;2345;-73
2023/10/24 01:56:55;;;;;;;;;;;;;;;20.02;58.27;100475.16;5042664;28;2424;-74
2023/10/24 01:59:22;;;;;;;;;;;;;;;20.02;58.38;100466.53;5032288;28;2240;-74
2023/10/24 02:01:48;;;;;;;;;;;;;;;20.02;58.41;100475.16;5043825;28;6670;-74
2023/10/24 02:04:14;;;;;;;;;;;;;;;20.01;58.28;100473.69;5021604;28;2286;-73
2023/10/24 02:06:41;;;;;;;;;;;;;;;20.02;58.23;100469.41;5042428;28;2373;-74
2023/10/24 02:09:07;;;;;;;;;;;;;;;20.01;58.48;100468.66;5044117;28;2179;-74
2023/10/24 02:11:34;;;;;;;;;;;;;;;20.01;58.44;100468.66;5043663;28;2213;-73
2023/10/24 02:14:00;;;;;;;;;;;;;;;20.00;58.31;100472.94;5042381;28;2342;-74
2023/10/24 02:16:31;;;;;;;;;;;;;;;20.00;58.39;100470.06;5026779;28;2478;-74
2023/10/24 02:18:58;;;;;;;;;;;;;;;20.00;58.21;100464.31;5043255;28;2254;-74
2023/10/24 02:21:24;;;;;;;;;;;;;;;19.99;58.21;100454.19;5026178;28;2405;-74
2023/10/24 02:23:51;;;;;;;;;;;;;;;20.00;58.50;100449.94;5041442;28;2422;-74
2023/10/24 02:26:17;;;;;;;;;;;;;;;20.00;58.23;100443.47;5025755;28;2291;-74
2023/10/24 02:28:44;;;;;;;;;;;;;;;20.00;58.19;100443.47;5041986;28;2239;-73
2023/10/24 02:31:10;;;;;;;;;;;;;;;19.99;58.50;100439.84;5042767;28;6389;-74
2023/10/24 02:33:37;;;;;;;;;;;;;;;20.00;58.15;100449.94;5040173;28;2386;-74
2023/10/24 02:36:07;;;;;;;;;;;;;;;20.00;58.39;100467.19;5041874;28;2439;-74
2023/10/24 02:38:34;;;;;;;;;;;;;;;19.98;58.50;100463.50;5043432;28;2337;-74
2023/10/24 02:41:00;;;;;;;;;;;;;;;19.99;58.28;100459.22;5042525;28;2568;-74
2023/10/24 02:43:26;;;;;;;;;;;;;;;19.99;58.42;100459.94;5042328;28;2298;-74
2023/10/24 02:45:54;;;;;;;;;;;;;;;19.99;58.44;100448.47;5043456;28;2453;-74
2023/10/24 02:48:20;;;;;;;;;;;;;;;19.99;58.36;100457.06;5041860;28;2337;-74
2023/10/24 02:50:53;;;;;;;;;;;;;;;20.00;58.37;100449.94;5026114;28;2383;-73
2023/10/24 02:53:19;;;;;;;;;;;;;;;20.01;58.13;100454.28;5022058;28;2382;-73
2023/10/24 02:55:48;;;;;;;;;;;;;;;20.02;58.15;100441.41;5043334;28;2332;-74
2023/10/24 02:58:14;;;;;;;;;;;;;;;20.04;58.13;100438.63;5025536;28;2369;-74
2023/10/24 03:00:42;;;;;;;;;;;;;;;20.05;58.34;100440.09;5007125;28;6140;-73
2023/10/24 03:03:09;;;;;;;;;;;;;;;20.06;58.29;100444.44;5042566;28;2374;-73
2023/10/24 03:05:35;;;;;;;;;;;;;;;20.07;58.11;100437.31;5041659;28;2295;-74
2023/10/24 03:08:02;;;;;;;;;;;;;;;20.06;58.21;100435.06;5042554;28;2262;-74
2023/10/24 03:10:28;;;;;;;;;;;;;;;20.05;58.54;100434.34;5043734;28;2379;-74
2023/10/24 03:12:55;;;;;;;;;;;;;;;20.07;58.59;100425.06;5026202;28;2378;-74
2023/10/24 03:15:21;;;;;;;;;;;;;;;20.08;58.63;100415.78;5041904;28;2437;-74
2023/10/24 03:17:48;;;;;;;;;;;;;;;20.08;58.43;100404.28;5042391;28;2362;-74
2023/10/24 03:20:14;;;;;;;;;;;;;;;20.09;58.50;100405.78;5024109;28;2263;-73
2023/10/24 03:22:41;;;;;;;;;;;;;;;20.09;58.76;100394.28;5024522;28;2271;-73
2023/10/24 03:25:07;;;;;;;;;;;;;;;20.08;58.49;100404.28;5042404;28;2389;-74
2023/10/24 03:27:33;;;;;;;;;;;;;;;20.08;58.67;100407.16;5023850;28;2337;-74
2023/10/24 03:30:01;;;;;;;;;;;;;;;20.08;58.55;100404.28;5041931;28;2290;-74
2023/10/24 03:32:28;;;;;;;;;;;;;;;20.09;58.79;100399.28;5020092;28;6241;-74
2023/10/24 03:34:54;;;;;;;;;;;;;;;20.08;58.86;100392.78;5041925;28;2506;-74
2023/10/24 03:37:21;;;;;;;;;;;;;;;20.09;58.66;100391.41;5041210;28;2302;-74
2023/10/24 03:39:47;;;;;;;;;;;;;;;20.07;58.77;100397.06;5041714;28;2873;-74
2023/10/24 03:42:14;;;;;;;;;;;;;;;20.07;58.61;100399.94;5041120;28;2485;-74
2023/10/24 03:44:41;;;;;;;;;;;;;;;20.08;58.73;100397.78;5042857;28;2085;-74
2023/10/24 03:47:07;;;;;;;;;;;;;;;20.07;58.70;100402.81;5040543;28;2235;-74
2023/10/24 03:49:34;;;;;;;;;;;;;;;20.07;58.71;100388.44;5041569;28;2286;-74
2023/10/24 03:52:02;;;;;;;;;;;;;;;20.05;58.97;100388.34;5042222;28;2266;-74
2023/10/24 03:54:29;;;;;;;;;;;;;;;20.06;58.91;100372.56;5040420;28;2377;-74
2023/10/24 03:56:56;;;;;;;;;;;;;;;20.05;58.91;100385.47;5039245;28;2330;-74
2023/10/24 03:59:22;;;;;;;;;;;;;;;20.06;58.83;100372.56;5041141;28;2457;-74
2023/10/24 04:01:49;;;;;;;;;;;;;;;20.05;58.97;100370.38;5040665;28;6450;-73
2023/10/24 04:04:15;;;;;;;;;;;;;;;20.05;58.85;100365.38;5039143;28;2259;-73
2023/10/24 04:06:42;;;;;;;;;;;;;;;20.06;58.88;100360.34;5022627;28;2402;-74
2023/10/24 04:09:09;;;;;;;;;;;;;;;20.03;58.78;100362.41;5040119;28;2218;-70
2023/10/24 04:11:43;;;;;;;;;;;;;;;20.04;58.91;100358.16;5039686;28;2453;-73
2023/10/24 04:14:09;;;;;;;;;;;;;;;20.02;58.73;100343.69;5037952;28;2393;-73
2023/10/24 04:16:36;;;;;;;;;;;;;;;20.02;58.79;100320.72;5039910;28;2347;-73
2023/10/24 04:19:02;;;;;;;;;;;;;;;20.00;58.95;100317.75;5040717;28;2233;-73
2023/10/24 04:21:29;;;;;;;;;;;;;;;20.02;59.02;100326.47;5041934;28;2381;-73
2023/10/24 04:23:55;;;;;;;;;;;;;;;20.03;58.92;100330.78;5038760;28;2356;-73
2023/10/24 04:26:21;;;;;;;;;;;;;;;20.04;58.98;100329.41;5040323;28;2414;-73
2023/10/24 04:28:48;;;;;;;;;;;;;;;19.99;58.88;100332.78;5037505;28;2541;-71
2023/10/24 04:31:14;;;;;;;;;;;;;;;20.00;58.80;100317.75;5039880;28;6520;-74
2023/10/24 04:33:41;;;;;;;;;;;;;;;19.98;59.13;100325.56;4997450;28;2328;-71
2023/10/24 04:36:08;;;;;;;;;;;;;;;20.12;58.75;100322.50;4996648;28;2336;-70
2023/10/24 04:38:34;;;;;;;;;;;;;;;20.09;58.99;100330.31;4999575;28;2325;-71
2023/10/24 04:41:01;;;;;;;;;;;;;;;20.08;58.66;100340.31;4999909;28;2308;-71
2023/10/24 04:43:27;;;;;;;;;;;;;;;20.08;58.63;100335.28;5000623;28;2342;-71
2023/10/24 04:45:54;;;;;;;;;;;;;;;20.07;58.67;100328.09;5000788;28;2162;-71
2023/10/24 04:48:20;;;;;;;;;;;;;;;20.09;58.52;100331.03;5000788;28;2454;-71
2023/10/24 04:50:46;;;;;;;;;;;;;;;20.12;58.76;100334.00;5002087;28;2335;-71
2023/10/24 04:53:13;;;;;;;;;;;;;;;20.12;58.48;100328.25;5000434;28;2329;-71
2023/10/24 04:55:39;;;;;;;;;;;;;;;20.13;58.72;100338.34;5000491;28;2190;-71
2023/10/24 04:58:06;;;;;;;;;;;;;;;20.12;58.57;100331.13;5001633;28;2454;-71
2023/10/24 05:00:33;;;;;;;;;;;;;;;20.12;58.80;100317.47;5000723;28;7081;-71
2023/10/24 05:02:59;;;;;;;;;;;;;;;20.12;58.54;100308.84;5001247;28;2387;-71
2023/10/24 05:05:27;;;;;;;;;;;;;;;20.13;58.78;100306.72;5000894;28;2356;-71
2023/10/24 05:07:54;;;;;;;;;;;;;;;20.13;58.54;100312.47;5000642;28;2406;-71
2023/10/24 05:10:20;;;;;;;;;;;;;;;20.12;58.69;100300.22;5001916;28;2453;-71
2023/10/24 05:12:47;;;;;;;;;;;;;;;20.12;58.84;100299.50;5001515;28;2371;-71
2023/10/24 05:15:13;;;;;;;;;;;;;;;20.12;58.87;100293.75;4999547;28;2363;-71
2023/10/24 05:17:39;;;;;;;;;;;;;;;20.11;59.14;100293.00;5003070;28;2482;-71
2023/10/24 05:20:07;;;;;;;;;;;;;;;20.12;58.84;100299.50;5005946;28;2146;-71
2023/10/24 05:22:34;;;;;;;;;;;;;;;20.11;58.63;100275.03;5005035;28;2257;-71
2023/10/24 05:25:00;;;;;;;;;;;;;;;20.11;58.85;100281.50;5004816;28;2387;-71
2023/10/24 05:27:27;;;;;;;;;;;;;;;20.10;58.97;100291.53;5006321;28;2269;-71
2023/10/24 05:29:53;;;;;;;;;;;;;;;20.10;59.04;100277.16;5004603;28;2321;-71
2023/10/24 05:32:19;;;;;;;;;;;;;;;20.09;59.00;100284.31;5020548;28;6448;-71
2023/10/24 05:34:46;;;;;;;;;;;;;;;20.08;58.85;100277.81;5043837;28;2338;-71
2023/10/24 05:37:13;;;;;;;;;;;;;;;20.08;58.78;100274.94;5045870;28;2337;-71
2023/10/24 05:39:39;;;;;;;;;;;;;;;20.08;58.77;100292.19;5044395;28;2389;-71
2023/10/24 05:42:05;;;;;;;;;;;;;;;20.07;58.94;100287.84;5043279;28;2191;-71
2023/10/24 05:44:32;;;;;;;;;;;;;;;20.08;58.79;100289.31;5045306;28;2055;-71
2023/10/24 05:46:58;;;;;;;;;;;;;;;20.08;58.97;100282.84;5043381;28;2448;-71
2023/10/24 05:49:25;;;;;;;;;;;;;;;20.07;59.04;100272.75;5044202;28;2487;-71
2023/10/24 05:51:52;;;;;;;;;;;;;;;20.06;58.88;100271.25;5042090;28;2416;-71
2023/10/24 05:54:18;;;;;;;;;;;;;;;20.06;59.11;100263.38;5044527;28;2393;-71
2023/10/24 05:56:44;;;;;;;;;;;;;;;20.05;58.85;100261.91;5045044;28;2373;-71
2023/10/24 05:59:11;;;;;;;;;;;;;;;20.06;59.03;100262.63;5042486;28;2393;-71
2023/10/24 06:01:37;;;;;;;;;;;;;;;20.05;58.97;100243.94;5043985;28;6115;-71
2023/10/24 06:04:04;;;;;;;;;;;;;;;20.05;59.07;100233.16;5044083;28;2223;-71
2023/10/24 06:06:30;;;;;;;;;;;;;;;20.04;59.02;100225.94;5047309;28;1825;-71
2023/10/24 06:08:57;;;;;;;;;;;;;;;20.03;58.95;100217.97;5043307;28;1595;-71
2023/10/24 06:11:23;;;;;;;;;;;;;;;20.04;58.98;100211.59;5041358;28;2341;-71
2023/10/24 06:13:49;;;;;;;;;;;;;;;20.04;58.89;100191.47;5042745;28;2556;-70
2023/10/24 06:16:18;;;;;;;;;;;;;;;20.05;58.87;100175.69;5044666;28;2363;-71
2023/10/24 06:18:45;;;;;;;;;;;;;;;20.06;59.13;100188.63;5042181;28;2326;-71
2023/10/24 06:21:12;;;;;;;;;;;;;;;20.08;58.93;100191.59;5043441;28;2448;-71
2023/10/24 06:23:38;;;;;;;;;;;;;;;20.11;58.79;100203.16;5044847;28;2400;-71
2023/10/24 06:26:14;;;;;;;;;;;;;;;20.12;58.89;100213.28;5043445;28;2181;-71
2023/10/24 06:28:41;;;;;;;;;;;;;;;20.11;58.54;100206.78;5041953;28;2279;-71
2023/10/24 06:31:07;;;;;;;;;;;;;;;20.13;58.47;100212.59;5041785;28;6551;-71
2023/10/24 06:33:34;;;;;;;;;;;;;;;20.13;58.58;100209.72;5041163;28;2349;-71
2023/10/24 06:36:04;;;;;;;;;;;;;;;20.14;58.88;100207.59;5043468;28;2313;-71
2023/10/24 06:38:31;;;;;;;;;;;;;;;20.14;58.58;100204.72;5043598;28;2259;-71
2023/10/24 06:40:58;;;;;;;;;;;;;;;20.14;58.56;100210.47;5042578;28;2275;-71
2023/10/24 06:43:25;;;;;;;;;;;;;;;20.14;58.63;100204.72;5044025;28;2334;-71
2023/10/24 06:45:52;;;;;;;;;;;;;;;20.15;58.44;100203.31;5043546;28;2448;-71
2023/10/24 06:48:18;;;;;;;;;;;;;;;20.14;58.57;100216.22;5044346;28;2301;-71
2023/10/24 06:50:44;;;;;;;;;;;;;;;20.13;58.28;100220.50;5043506;28;2365;-71
2023/10/24 06:53:11;;;;;;;;;;;;;;;20.13;58.37;100226.22;5043023;28;2327;-71
2023/10/24 06:55:37;;;;;;;;;;;;;;;20.13;58.40;100220.50;5041469;28;2161;-71
2023/10/24 06:58:04;;;;;;;;;;;;;;;20.13;58.38;100226.22;5025980;28;2612;-71
2023/10/24 07:00:30;;;;;;;;;;;;;;;20.14;58.47;100236.34;5041062;28;6047;-71
2023/10/24 07:02:57;;;;;;;;;;;;;;;20.12;58.37;100222.63;5043548;28;2418;-72
2023/10/24 07:05:23;;;;;;;;;;;;;;;20.12;58.31;100219.75;5042955;28;1605;-71
2023/10/24 07:07:50;;;;;;;;;;;;;;;20.13;58.24;100226.22;5042817;28;2365;-71
2023/10/24 07:10:16;;;;;;;;;;;;;;;20.12;58.53;100231.25;5043033;28;1932;-71
2023/10/24 07:12:43;;;;;;;;;;;;;;;20.13;58.37;100220.50;5041424;28;2321;-71
2023/10/24 07:15:09;;;;;;;;;;;;;;;20.12;58.35;100221.91;5041405;28;2283;-71
2023/10/24 07:17:37;;;;;;;;;;;;;;;19.95;58.64;100212.66;5042696;28;2278;-71
2023/10/24 07:20:04;;;;;;;;;;;;;;;19.79;57.93;100207.03;5043375;28;2286;-70
2023/10/24 07:22:30;;;;;;;;;;;;;;;19.72;57.69;100208.19;5040204;28;2377;-71
2023/10/24 07:24:57;;;;;;;;;;;;;;;19.72;57.37;100201.72;5043225;28;2622;-70
2023/10/24 07:27:23;;;;;;;;;;;;;;;19.68;57.32;100196.53;5043195;28;2188;-71
2023/10/24 07:29:50;;;;;;;;;;;;;;;19.73;56.84;100203.19;5039330;28;2474;-70
2023/10/24 07:32:16;;;;;;;;;;;;;;;19.84;57.03;100202.94;5040846;28;6195;-70
2023/10/24 07:34:43;;;;;;;;;;;;;;;19.94;57.30;100191.06;5039666;28;2404;-70
2023/10/24 07:37:09;;;;;;;;;;;;;;;19.97;57.00;100195.47;5042842;28;2424;-71
2023/10/24 07:39:36;;;;;;;;;;;;;;;20.02;56.92;100194.25;5041029;28;2271;-71
2023/10/24 07:42:02;;;;;;;;;;;;;;;20.05;56.80;100184.31;5041562;28;2333;-70
2023/10/24 07:44:29;;;;;;;;;;;;;;;20.05;57.10;100198.66;5042071;28;1801;-71
2023/10/24 07:46:55;;;;;;;;;;;;;;;20.07;56.91;100198.75;5025902;28;1801;-70
2023/10/24 07:49:22;;;;;;;;;;;;;;;20.08;57.18;100200.22;5043271;28;1581;-71
2023/10/24 07:51:48;;;;;;;;;;;;;;;20.08;57.01;100202.34;5043289;28;1571;-70
2023/10/24 07:54:15;;;;;;;;;;;;;;;20.09;57.20;100204.56;5043601;28;1806;-70
2023/10/24 07:56:41;;;;;;;;;;;;;;;20.09;57.30;100212.47;5042948;28;1910;-71
2023/10/24 07:59:07;;;;;;;;;;;;;;;20.09;57.38;100204.56;5042189;28;1616;-71
2023/10/24 08:01:34;;;;;;;;;;;;;;;20.08;57.41;100197.34;5041710;28;6613;-70
2023/10/24 08:04:01;;;;;;;;;;;;;;;20.09;57.47;100190.22;5042171;28;1591;-70
2023/10/24 08:06:27;;;;;;;;;;;;;;;20.09;57.37;100193.06;5042027;28;1849;-71
2023/10/24 08:08:56;;;;;;;;;;;;;;;20.11;57.56;100188.78;5022656;28;1598;-70
2023/10/24 08:11:22;;;;;;;;;;;;;;;20.11;57.71;100180.16;5041967;28;1638;-70
2023/10/24 08:13:49;;;;;;;;;;;;;;;20.09;57.56;100175.09;5042445;28;1809;-71
2023/10/24 08:16:17;;;;;;;;;;;;;;;19.74;57.34;100167.31;5039625;28;2338;-72
2023/10/24 08:18:44;;;;;;;;;;;;;;;19.85;57.79;100158.41;5039532;28;2244;-69
2023/10/24 08:21:12;;;;;;;;;;;;;;;19.93;57.49;100155.13;5040826;28;2363;-71
2023/10/24 08:23:39;;;;;;;;;;;;;;;20.01;57.52;100154.69;5041697;28;2306;-70
2023/10/24 08:26:05;;;;;;;;;;;;;;;20.07;57.35;100157.78;5031047;28;2353;-71
2023/10/24 08:28:32;;;;;;;;;;;;;;;20.06;57.48;100157.03;5023774;28;2261;-71
2023/10/24 08:30:58;;;;;;;;;;;;;;;20.09;57.59;100160.72;5038021;28;6117;-71
2023/10/24 08:33:25;;;;;;;;;;;;;;;20.09;57.45;100175.09;5038724;28;2322;-71
2023/10/24 08:35:51;;;;;;;;;;;;;;;20.11;57.65;100171.53;5040175;28;2393;-71
2023/10/24 08:38:18;;;;;;;;;;;;;;;20.12;57.65;100168.03;5040036;28;2350;-71
2023/10/24 08:40:47;;;;;;;;;;;;;;;20.13;57.87;100168.75;5041251;28;2638;-71
2023/10/24 08:43:16;;;;;;;;;;;;;;;20.13;58.04;100169.47;5038452;28;2310;-71
2023/10/24 08:45:42;;;;;;;;;;;;;;;20.13;58.09;100168.75;5039143;28;2415;-71
2023/10/24 08:48:09;;;;;;;;;;;;;;;20.07;58.35;100166.41;5041776;28;2377;-71
2023/10/24 08:50:36;;;;;;;;;;;;;;;19.67;58.13;100167.06;5024781;28;1686;-71
2023/10/24 08:53:02;;;;;;;;;;;;;;;19.86;57.57;100164.94;5042411;28;1971;-70
2023/10/24 08:55:28;;;;;;;;;;;;;;;19.97;57.64;100163.13;5023463;28;1914;-71
2023/10/24 08:57:56;;;;;;;;;;;;;;;20.01;57.66;100164.03;5024479;28;1613;-71
2023/10/24 09:00:22;;;;;;;;;;;;;;;20.05;58.01;100152.69;5022110;28;6161;-71
2023/10/24 09:02:48;;;;;;;;;;;;;;;20.07;57.92;100149.88;5040992;28;1679;-71
2023/10/24 09:05:17;;;;;;;;;;;;;;;20.09;58.39;100144.22;5024364;28;2103;-71
2023/10/24 09:07:43;;;;;;;;;;;;;;;20.10;58.15;100147.81;5041522;28;1717;-71
2023/10/24 09:10:10;;;;;;;;;;;;;;;20.11;58.50;100143.53;5042175;28;1582;-71
2023/10/24 09:12:38;;;;;;;;;;;;;;;20.12;58.39;100132.78;5039919;28;1591;-71
2023/10/24 09:15:07;;;;;;;;;;;;;;;20.14;58.28;100130.00;5042433;28;1918;-71
2023/10/24 09:17:33;;;;;;;;;;;;;;;20.14;58.10;100132.88;5041077;28;1637;-71
2023/10/24 09:20:00;;;;;;;;;;;;;;;20.13;57.90;100128.50;5024824;28;1777;-70
2023/10/24 09:22:26;;;;;;;;;;;;;;;20.13;58.09;100125.63;5040103;28;2040;-71
2023/10/24 09:24:53;;;;;;;;;;;;;;;20.17;58.01;100128.66;5041400;28;1812;-70
2023/10/24 09:27:23;;;;;;;;;;;;;;;20.19;58.11;100137.34;5041061;28;1576;-72
2023/10/24 09:29:50;;;;;;;;;;;;;;;20.20;57.87;100127.31;5039845;28;1744;-71
2023/10/24 09:32:16;;;;;;;;;;;;;;;20.21;57.89;100140.31;5039895;28;6174;-71
2023/10/24 09:34:43;;;;;;;;;;;;;;;20.21;58.10;100128.81;5040813;28;1774;-71
2023/10/24 09:37:10;;;;;;;;;;;;;;;20.22;58.26;100130.28;5041324;28;1972;-71
2023/10/24 09:39:53;;;;;;;;;;;;;;;20.21;58.39;100128.81;5040330;28;1777;-72
2023/10/24 09:42:21;;;;;;;;;;;;;;;20.19;58.22;100114.38;5041121;28;2048;-71
2023/10/24 09:44:50;;;;;;;;;;;;;;;20.20;58.16;100104.31;5040602;28;1769;-70
2023/10/24 09:47:16;;;;;;;;;;;;;;;20.16;58.46;100104.19;5024112;28;1844;-71
2023/10/24 09:49:43;;;;;;;;;;;;;;;20.20;58.52;100092.81;5040203;28;1848;-71
2023/10/24 09:52:09;;;;;;;;;;;;;;;20.21;58.60;100097.91;5023737;28;1654;-70
2023/10/24 09:54:37;;;;;;;;;;;;;;;20.23;58.37;100100.13;5041112;28;1603;-71
2023/10/24 09:57:06;;;;;;;;;;;;;;;20.21;58.25;100106.53;5040940;28;1914;-71
2023/10/24 09:59:33;;;;;;;;;;;;;;;20.21;58.42;100106.53;5024015;28;1805;-70
2023/10/24 10:02:00;;;;;;;;;;;;;;;20.22;58.44;100110.16;5039825;28;6079;-70
2023/10/24 10:04:33;;;;;;;;;;;;;;;20.23;58.15;100097.25;5027918;28;1717;-71
2023/10/24 10:07:00;;;;;;;;;;;;;;;20.23;58.23;100094.38;5027907;28;1649;-71
2023/10/24 10:09:32;;;;;;;;;;;;;;;20.23;58.42;100098.00;5043778;28;1786;-71
2023/10/24 10:12:01;;;;;;;;;;;;;;;20.24;58.48;100095.84;5028542;28;1578;-70
2023/10/24 10:14:38;;;;;;;;;;;;;;;20.24;58.35;100092.97;5027902;28;1586;-70
2023/10/24 10:17:06;;;;;;;;;;;;;;;20.22;58.46;100092.91;5028299;28;1914;-67
2023/10/24 10:19:46;;;;;;;;;;;;;;;20.23;58.54;100083.63;5043758;28;1603;-67
2023/10/24 10:22:28;;;;;;;;;;;;;;;20.23;58.59;100085.75;5027165;28;1804;-68
2023/10/24 10:24:58;;;;;;;;;;;;;;;20.24;58.84;100087.22;5044001;28;1558;-67
2023/10/24 10:27:44;;;;;;;;;;;;;;;20.24;58.80;100093.69;5045076;28;1784;-67
2023/10/24 10:30:18;;;;;;;;;;;;;;;20.24;59.40;100087.22;5026275;28;6158;-67
2023/10/24 10:33:10;;;;;;;;;;;;;;;20.25;59.14;100082.97;5042420;28;1822;-67
2023/10/24 10:35:55;;;;;;;;;;;;;;;20.24;59.07;100082.22;5026778;28;1922;-67
2023/10/24 10:38:38;;;;;;;;;;;;;;;20.25;59.17;100085.84;5044268;28;1571;-67
2023/10/24 10:41:22;;;;;;;;;;;;;;;20.24;59.70;100081.47;5044741;28;1709;-68
2023/10/24 10:43:49;;;;;;;;;;;;;;;20.25;59.88;100083.69;5044179;28;1900;-67
2023/10/24 10:46:16;;;;;;;;;;;;;;;20.25;59.89;100085.84;5044176;28;1789;-67
2023/10/24 10:48:43;;;;;;;;;;;;;;;20.26;60.28;100087.28;5044268;28;1638;-67
2023/10/24 10:51:12;;;;;;;;;;;;;;;20.25;60.39;100082.97;5043727;28;1818;-67
2023/10/24 10:54:05;;;;;;;;;;;;;;;20.26;60.71;100072.91;5043727;28;1666;-68
2023/10/24 10:56:32;;;;;;;;;;;;;;;20.26;60.46;100078.69;5012444;28;1985;-68
2023/10/24 10:59:07;;;;;;;;;;;;;;;20.26;60.85;100070.03;5043619;28;1790;-67
2023/10/24 11:02:00;;;;;;;;;;;;;;;20.26;60.87;100070.03;5042631;28;6213;-67
2023/10/24 11:04:27;;;;;;;;;;;;;;;20.26;60.95;100067.16;5041791;28;2416;-68
2023/10/24 11:06:54;;;;;;;;;;;;;;;20.26;60.61;100062.16;5041973;28;2554;-67
2023/10/24 11:09:20;;;;;;;;;;;;;;;20.26;60.83;100067.16;5043078;28;2251;-68
2023/10/24 11:11:47;;;;;;;;;;;;;;;20.27;61.02;100062.88;5039388;28;2341;-68
2023/10/24 11:14:17;;;;;;;;;;;;;;;20.26;60.79;100056.41;5042932;28;2251;-68
2023/10/24 11:16:44;;;;;;;;;;;;;;;20.27;60.75;100051.38;5041990;28;2239;-68
2023/10/24 11:19:20;;;;;;;;;;;;;;;20.27;60.48;100042.75;5042775;28;1758;-68
2023/10/24 11:21:47;;;;;;;;;;;;;;;20.27;60.76;100039.88;5043668;28;1774;-68
2023/10/24 11:24:14;;;;;;;;;;;;;;;20.28;60.71;100041.38;5042150;28;1602;-68
2023/10/24 11:26:41;;;;;;;;;;;;;;;20.27;60.55;100042.75;5041759;28;1630;-70
2023/10/24 11:29:07;;;;;;;;;;;;;;;20.27;60.69;100042.75;5039523;28;2374;-68
2023/10/24 11:31:34;;;;;;;;;;;;;;;20.26;60.78;100032.69;5023473;28;6405;-68
2023/10/24 11:34:01;;;;;;;;;;;;;;;20.27;60.48;100028.38;5040435;28;1653;-68
2023/10/24 11:36:27;;;;;;;;;;;;;;;20.26;60.52;100027.66;5042182;28;1915;-68
2023/10/24 11:38:55;;;;;;;;;;;;;;;20.28;60.45;100021.25;5042510;28;1857;-68
2023/10/24 11:41:21;;;;;;;;;;;;;;;20.27;60.55;100019.75;5042692;28;1605;-68
2023/10/24 11:43:48;;;;;;;;;;;;;;;20.26;60.62;100015.44;5042161;28;1903;-68
2023/10/24 11:46:15;;;;;;;;;;;;;;;20.26;60.63;100032.69;5042279;28;1801;-68
2023/10/24 11:48:41;;;;;;;;;;;;;;;20.27;60.42;100034.13;5042420;28;1777;-68
2023/10/24 11:51:08;;;;;;;;;;;;;;;20.27;60.57;100048.50;5042976;28;1618;-68
2023/10/24 11:53:34;;;;;;;;;;;;;;;20.26;60.56;100044.19;5041139;28;1718;-68
2023/10/24 11:56:01;;;;;;;;;;;;;;;20.26;60.46;100050.66;5042909;28;1942;-67
2023/10/24 11:58:31;;;;;;;;;;;;;;;20.27;60.56;100057.13;5040672;28;1650;-69
2023/10/24 12:00:58;;;;;;;;;;;;;;;20.27;60.71;100057.13;5042168;28;6207;-68
2023/10/24 12:03:25;;;;;;;;;;;;;;;20.25;60.28;100057.09;5042152;28;1626;-69
2023/10/24 12:05:52;;;;;;;;;;;;;;;20.26;60.23;100064.31;5041265;28;1718;-67
2023/10/24 12:08:22;;;;;;;;;;;;;;;20.26;60.40;100055.69;5042242;28;1629;-67
2023/10/24 12:10:52;;;;;;;;;;;;;;;20.26;60.32;100067.91;5042296;28;1610;-68
2023/10/24 12:13:18;;;;;;;;;;;;;;;20.26;60.18;100055.69;5040672;28;1786;-67
2023/10/24 12:15:46;;;;;;;;;;;;;;;20.27;60.30;100043.50;5039203;28;2353;-67
2023/10/24 12:18:12;;;;;;;;;;;;;;;20.27;60.17;100034.91;5039491;28;2358;-67
2023/10/24 12:20:39;;;;;;;;;;;;;;;20.28;60.53;100041.38;5042806;28;1849;-66
2023/10/24 12:23:05;;;;;;;;;;;;;;;20.27;60.65;100039.88;5041795;28;1909;-67
2023/10/24 12:25:33;;;;;;;;;;;;;;;20.26;60.71;100029.81;5040670;28;1728;-67
2023/10/24 12:28:03;;;;;;;;;;;;;;;20.26;60.80;100032.69;5025297;28;1598;-66
2023/10/24 12:30:29;;;;;;;;;;;;;;;20.25;60.66;100036.97;5041084;28;6138;-66
2023/10/24 12:32:57;;;;;;;;;;;;;;;20.24;60.45;100018.22;5041647;28;1872;-66
2023/10/24 12:35:24;;;;;;;;;;;;;;;20.23;60.45;100020.38;5041820;28;1595;-67
2023/10/24 12:37:50;;;;;;;;;;;;;;;20.23;60.44;100017.50;5041143;28;1977;-68
2023/10/24 12:40:18;;;;;;;;;;;;;;;20.24;60.67;100023.97;5041356;28;1599;-66
2023/10/24 12:42:44;;;;;;;;;;;;;;;20.24;60.40;100023.97;5041775;28;1833;-66
2023/10/24 12:45:11;;;;;;;;;;;;;;;20.23;60.50;100025.41;5040660;28;1591;-66
2023/10/24 12:47:37;;;;;;;;;;;;;;;20.24;60.51;100018.22;5041898;28;1825;-67
2023/10/24 12:50:04;;;;;;;;;;;;;;;20.23;60.64;100028.28;5041107;28;1657;-67